Time;durP1;ratioP1;P1;durP2;ratioP2;P2;SDS_P1;SDS_P2;PMS_P1;PMS_P2;Temp;Humidity;BMP_temperature;BMP_pressure;BME280_temperature;BME280_humidity;BME280_pressure;Samples;Min_cycle;Max_cycle;Signal;HPM_P1;HPM_P2
2022/09/08 00:00:52;;;;;;;25.55;21.62;;;;;;;20.71;90.14;99596.87;4291859;33;34174;-79
2022/09/08 00:03:40;;;;;;;24.42;21.67;;;;;;;20.47;92.17;99593.38;4310684;33;34586;-79
2022/09/08 00:06:26;;;;;;;25.15;20.88;;;;;;;20.69;90.63;99588.09;4292705;33;34953;-79
2022/09/08 00:09:12;;;;;;;26.90;20.65;;;;;;;21.05;87.82;99590.06;4295443;33;34639;-79
2022/09/08 00:12:01;;;;;;;25.05;20.60;;;;;;;20.26;91.54;99585.56;4293338;33;179823;-79
2022/09/08 00:14:47;;;;;;;25.85;20.67;;;;;;;20.71;89.92;99580.97;4303241;33;35527;-79
2022/09/08 00:17:33;;;;;;;26.65;22.60;;;;;;;20.31;91.61;99578.88;4287668;33;34874;-79
2022/09/08 00:20:20;;;;;;;24.90;22.30;;;;;;;20.35;92.53;99580.53;4296369;33;34560;-79
2022/09/08 00:23:07;;;;;;;24.55;21.90;;;;;;;20.02;94.10;99561.81;4301805;33;35114;-79
2022/09/08 00:25:53;;;;;;;23.70;21.10;;;;;;;20.70;90.20;99557.09;4281826;33;34699;-79
2022/09/08 00:28:39;;;;;;;25.27;22.58;;;;;;;19.94;94.03;99566.47;4306742;33;35597;-80
2022/09/08 00:31:25;;;;;;;30.83;23.42;;;;;;;19.82;97.25;99561.13;4298765;33;34499;-80
2022/09/08 00:34:12;;;;;;;26.00;22.37;;;;;;;19.97;95.17;99559.34;4302097;33;34470;-78
2022/09/08 00:36:58;;;;;;;24.70;21.55;;;;;;;20.05;95.12;99555.50;4306188;33;34762;-79
2022/09/08 00:39:44;;;;;;;26.12;22.77;;;;;;;19.82;96.59;99558.34;4300800;33;36100;-79
2022/09/08 00:42:30;;;;;;;28.73;22.58;;;;;;;20.20;94.22;99548.12;4295391;33;34676;-78
2022/09/08 00:45:17;;;;;;;26.37;22.60;;;;;;;20.06;94.71;99557.09;4303632;33;33346;-79
2022/09/08 00:48:06;;;;;;;27.15;21.83;;;;;;;20.21;93.65;99542.19;4303421;33;34795;-79
2022/09/08 00:50:53;;;;;;;27.87;22.40;;;;;;;20.62;91.06;99538.72;4291649;33;35955;-79
2022/09/08 00:53:39;;;;;;;24.75;22.00;;;;;;;20.30;91.96;99549.47;4284096;33;34582;-79
2022/09/08 00:56:28;;;;;;;26.35;22.27;;;;;;;20.03;93.90;99548.69;4296350;33;33864;-79
2022/09/08 00:59:17;;;;;;;28.17;23.10;;;;;;;20.00;94.05;99542.69;4288715;33;35637;-79
2022/09/08 01:02:23;;;;;;;26.37;22.17;;;;;;;20.02;94.41;99542.34;4283547;33;34866;-79
2022/09/08 01:05:11;;;;;;;24.30;20.80;;;;;;;20.00;94.80;99544.69;4290418;33;35363;-79
2022/09/08 01:14:48;;;;;;;23.30;20.48;;;;;;;20.32;92.10;99541.50;4292152;33;35001;-79
2022/09/08 01:17:34;;;;;;;23.83;21.10;;;;;;;20.37;91.12;99543.97;4304349;33;34527;-79
2022/09/08 01:20:27;;;;;;;24.87;22.25;;;;;;;20.11;92.60;99545.63;4300086;33;34216;-79
2022/09/08 01:23:27;;;;;;;26.35;22.62;;;;;;;19.86;94.26;99541.72;4297023;33;34632;-79
2022/09/08 01:26:31;;;;;;;25.30;21.67;;;;;;;20.03;94.13;99537.56;4302236;33;35063;-79
2022/09/08 01:29:19;;;;;;;24.67;21.95;;;;;;;20.52;90.17;99540.19;4296445;33;34885;-79
2022/09/08 01:32:07;;;;;;;23.83;20.35;;;;;;;20.56;89.25;99534.69;4307245;33;35026;-79
2022/09/08 01:34:53;;;;;;;22.98;20.40;;;;;;;20.21;90.99;99533.06;4286229;33;34686;-79
2022/09/08 01:37:39;;;;;;;24.92;21.08;;;;;;;20.09;92.07;99527.72;4296229;33;35954;-79
2022/09/08 01:40:25;;;;;;;24.45;20.98;;;;;;;19.88;93.19;99531.03;4304556;33;35109;-79
2022/09/08 01:43:12;;;;;;;24.60;21.25;;;;;;;19.88;93.51;99531.81;4308690;33;33994;-79
2022/09/08 01:45:58;;;;;;;24.67;21.42;;;;;;;19.74;94.07;99539.97;4302205;33;34831;-79
2022/09/08 01:48:45;;;;;;;24.20;21.62;;;;;;;19.68;94.98;99539.47;4304687;33;34932;-79
2022/09/08 01:51:33;;;;;;;23.95;21.05;;;;;;;19.65;95.18;99543.00;4304361;33;34405;-79
2022/09/08 01:54:19;;;;;;;24.00;21.10;;;;;;;19.76;94.71;99540.41;4297319;33;35110;-79
2022/09/08 01:57:06;;;;;;;23.85;21.23;;;;;;;19.64;95.34;99535.03;4293737;33;35402;-79
2022/09/08 01:59:51;;;;;;;22.42;19.67;;;;;;;19.92;94.07;99534.63;4298849;33;35061;-78
2022/09/08 02:02:38;;;;;;;23.85;21.05;;;;;;;20.09;92.76;99534.06;4299186;33;34678;-79
2022/09/08 02:05:25;;;;;;;25.62;20.75;;;;;;;20.22;91.50;99527.09;4286687;33;34169;-79
2022/09/08 02:08:11;;;;;;;27.23;20.83;;;;;;;20.49;89.20;99534.56;4297462;33;34606;-79
2022/09/08 02:10:59;;;;;;;31.67;23.48;;;;;;;19.86;92.34;99534.16;4304466;33;34917;-79
2022/09/08 02:13:46;;;;;;;25.67;22.30;;;;;;;18.95;99.34;99535.09;4305407;33;34622;-79
2022/09/08 02:16:33;;;;;;;29.35;23.55;;;;;;;19.06;99.65;99538.84;4307105;33;34862;-79
2022/09/08 02:19:19;;;;;;;26.00;21.67;;;;;;;19.30;98.00;99534.91;4295144;33;35576;-79
2022/09/08 02:22:06;;;;;;;23.67;21.17;;;;;;;19.27;98.56;99532.88;4305812;33;35070;-79
2022/09/08 02:24:52;;;;;;;29.98;21.27;;;;;;;19.78;95.00;99529.72;4308691;33;35775;-79
2022/09/08 02:27:39;;;;;;;25.48;22.37;;;;;;;19.71;94.66;99537.94;4292483;33;34502;-79
2022/09/08 02:30:25;;;;;;;26.27;22.67;;;;;;;18.84;100.00;99530.16;4294551;33;34502;-79
2022/09/08 02:33:13;;;;;;;25.00;21.27;;;;;;;19.24;99.54;99539.16;4307306;33;35202;-79
2022/09/08 02:35:59;;;;;;;23.17;20.60;;;;;;;19.85;95.10;99537.34;4295414;33;34613;-79
2022/09/08 02:38:49;;;;;;;21.83;19.27;;;;;;;20.05;92.69;99543.56;4295621;33;35238;-78
2022/09/08 02:41:36;;;;;;;24.02;20.95;;;;;;;20.05;91.84;99541.59;4293477;33;34391;-79
2022/09/08 02:44:22;;;;;;;24.65;20.37;;;;;;;20.06;91.51;99534.03;4308026;33;34925;-79
2022/09/08 02:47:08;;;;;;;22.87;20.30;;;;;;;19.91;92.38;99533.03;4305504;33;34820;-79
2022/09/08 02:49:54;;;;;;;23.15;20.62;;;;;;;19.81;93.72;99533.69;4298605;33;34051;-79
2022/09/08 02:52:40;;;;;;;25.48;21.55;;;;;;;19.29;96.77;99536.84;4303440;33;34752;-79
2022/09/08 02:55:26;;;;;;;23.48;20.40;;;;;;;19.70;93.77;99528.78;4284950;33;34935;-79
2022/09/08 02:58:13;;;;;;;25.50;20.90;;;;;;;19.59;94.71;99533.38;4293016;33;34621;-79
2022/09/08 03:01:00;;;;;;;24.08;19.58;;;;;;;19.79;94.19;99528.53;4307721;33;35032;-78
2022/09/08 03:03:47;;;;;;;21.30;19.00;;;;;;;19.97;91.97;99532.34;4294508;33;34731;-79
2022/09/08 03:06:37;;;;;;;23.08;19.52;;;;;;;19.77;93.13;99517.75;4308018;33;34725;-79
2022/09/08 03:09:23;;;;;;;24.42;20.77;;;;;;;19.84;92.53;99516.28;4291586;33;34562;-79
2022/09/08 03:12:10;;;;;;;22.65;19.92;;;;;;;19.69;93.93;99523.59;4297262;33;32951;-79
2022/09/08 03:14:56;;;;;;;22.02;19.12;;;;;;;19.87;93.04;99521.09;4304532;33;35228;-79
2022/09/08 03:17:42;;;;;;;24.55;20.02;;;;;;;19.75;93.80;99525.69;4305071;33;35990;-78
2022/09/08 03:20:29;;;;;;;22.58;19.98;;;;;;;19.65;94.87;99519.94;4296556;33;35339;-79
2022/09/08 03:23:19;;;;;;;24.17;20.95;;;;;;;19.26;96.58;99515.38;4307796;33;34434;-78
2022/09/08 03:26:09;;;;;;;25.17;20.27;;;;;;;19.37;96.55;99509.22;4294348;33;35564;-79
2022/09/08 03:28:55;;;;;;;26.10;19.53;;;;;;;19.78;93.82;99513.03;4295393;33;35099;-79
2022/09/08 03:31:41;;;;;;;21.77;19.20;;;;;;;19.93;91.97;99508.47;4310192;33;34930;-79
2022/09/08 03:34:28;;;;;;;23.58;20.15;;;;;;;19.79;92.61;99509.06;4309597;33;34184;-78
2022/09/08 03:37:14;;;;;;;23.05;19.90;;;;;;;19.69;93.70;99506.91;4305642;33;34440;-79
2022/09/08 03:40:03;;;;;;;25.35;20.92;;;;;;;19.46;94.60;99509.72;4299595;33;35090;-79
2022/09/08 03:42:50;;;;;;;26.12;19.75;;;;;;;19.39;95.60;99516.00;4292085;33;33509;-79
2022/09/08 03:45:41;;;;;;;24.60;19.50;;;;;;;19.36;95.83;99524.28;4307408;33;34042;-79
2022/09/08 03:48:28;;;;;;;23.33;20.35;;;;;;;19.18;96.79;99540.62;4304901;33;35661;-79
2022/09/08 03:51:18;;;;;;;24.05;20.95;;;;;;;18.89;98.11;99529.03;4309053;33;34846;-79
2022/09/08 03:57:09;;;;;;;23.00;19.55;;;;;;;19.08;97.49;99528.97;4302581;33;34565;-79
2022/09/08 03:59:57;;;;;;;25.75;20.00;;;;;;;19.46;95.75;99534.75;4285358;33;34681;-78
2022/09/08 04:02:43;;;;;;;22.17;19.35;;;;;;;19.81;92.46;99533.69;4297002;33;34979;-79
2022/09/08 04:05:31;;;;;;;24.35;20.73;;;;;;;19.69;92.11;99543.84;4280814;33;34226;-79
2022/09/08 04:08:17;;;;;;;22.45;18.85;;;;;;;19.00;96.14;99541.13;4310091;33;33984;-79
2022/09/08 04:11:05;;;;;;;23.65;20.30;;;;;;;19.24;96.59;99544.69;4303003;33;36728;-80
2022/09/08 04:13:51;;;;;;;21.98;19.40;;;;;;;19.51;94.46;99551.09;4293064;33;35002;-79
2022/09/08 04:16:37;;;;;;;21.15;18.92;;;;;;;19.53;94.22;99557.09;4307635;33;34577;-78
2022/09/08 04:19:23;;;;;;;21.23;18.25;;;;;;;19.45;94.08;99555.38;4317815;33;34867;-78
2022/09/08 04:22:11;;;;;;;24.75;18.83;;;;;;;19.42;94.84;99545.00;4317093;33;34925;-78
2022/09/08 04:24:57;;;;;;;21.67;17.95;;;;;;;19.46;94.47;99546.66;4307061;33;35296;-78
2022/09/08 04:27:43;;;;;;;22.52;17.70;;;;;;;19.73;92.56;99532.81;4294450;33;34690;-77
2022/09/08 04:30:30;;;;;;;21.20;18.50;;;;;;;19.69;92.61;99526.38;4299969;33;35216;-76
2022/09/08 04:33:16;;;;;;;21.80;18.33;;;;;;;19.97;90.57;99537.09;4307446;33;34733;-77
2022/09/08 04:36:07;;;;;;;22.75;18.35;;;;;;;19.87;91.12;99532.22;4301441;33;35915;-77
2022/09/08 04:39:11;;;;;;;25.90;20.00;;;;;;;19.72;92.53;99523.66;4303061;33;34792;-77
2022/09/08 04:41:58;;;;;;;22.23;18.08;;;;;;;19.81;91.78;99534.50;4306568;33;35040;-77
2022/09/08 04:44:44;;;;;;;22.52;17.33;;;;;;;19.41;93.33;99537.81;4296128;33;35906;-77
2022/09/08 04:47:30;;;;;;;24.75;18.37;;;;;;;19.70;92.82;99531.56;4312693;33;35296;-76
2022/09/08 04:50:17;;;;;;;21.42;17.73;;;;;;;19.66;92.92;99535.47;4312289;33;34986;-77
2022/09/08 04:53:02;;;;;;;23.40;18.20;;;;;;;19.86;91.19;99539.72;4308452;33;35275;-77
2022/09/08 04:55:49;;;;;;;21.08;16.87;;;;;;;19.93;91.28;99541.81;4306855;33;34874;-77
2022/09/08 04:58:37;;;;;;;22.48;18.40;;;;;;;20.02;91.06;99549.88;4306555;33;34985;-78
2022/09/08 05:01:27;;;;;;;22.45;18.77;;;;;;;20.11;89.37;99537.28;4296455;33;34551;-77
2022/09/08 05:04:13;;;;;;;21.98;18.10;;;;;;;20.32;88.11;99535.94;4297422;33;35226;-75
2022/09/08 05:07:00;;;;;;;22.80;18.52;;;;;;;20.30;88.13;99533.56;4313782;33;34733;-77
2022/09/08 05:09:48;;;;;;;21.70;18.58;;;;;;;20.46;87.34;99538.91;4278311;33;34941;-77
2022/09/08 05:12:34;;;;;;;22.23;18.80;;;;;;;20.16;88.80;99556.44;4297034;33;34964;-77
2022/09/08 05:15:22;;;;;;;22.02;18.70;;;;;;;19.94;90.47;99551.75;4297884;33;34597;-77
2022/09/08 05:18:09;;;;;;;20.88;17.85;;;;;;;20.47;88.35;99548.88;4310667;33;35555;-77
2022/09/08 05:20:55;;;;;;;24.23;19.62;;;;;;;20.55;87.71;99545.03;4308713;33;34963;-77
2022/09/08 05:23:42;;;;;;;20.52;17.67;;;;;;;20.47;87.81;99546.09;4290491;33;33618;-77
2022/09/08 05:26:29;;;;;;;23.27;18.77;;;;;;;20.64;86.45;99548.28;4309056;33;34313;-77
2022/09/08 05:29:15;;;;;;;22.77;18.83;;;;;;;20.33;88.37;99552.28;4311503;33;34599;-77
2022/09/08 05:32:02;;;;;;;28.08;21.50;;;;;;;20.42;88.14;99546.41;4310452;33;35113;-77
2022/09/08 05:34:48;;;;;;;22.98;19.58;;;;;;;20.64;86.93;99539.94;4311406;33;34614;-77
2022/09/08 05:37:35;;;;;;;22.92;18.23;;;;;;;20.84;86.36;99542.53;4314846;33;33994;-77
2022/09/08 05:40:21;;;;;;;24.40;19.33;;;;;;;21.13;84.02;99546.38;4309778;33;34533;-77
2022/09/08 05:43:07;;;;;;;23.30;19.90;;;;;;;20.30;88.66;99555.03;4309981;33;35079;-77
2022/09/08 05:45:54;;;;;;;30.55;20.45;;;;;;;20.67;87.92;99546.72;4310414;33;34751;-77
2022/09/08 05:48:40;;;;;;;24.33;19.15;;;;;;;20.82;86.59;99542.09;4310532;33;34332;-76
2022/09/08 05:51:27;;;;;;;24.15;19.67;;;;;;;20.50;87.54;99536.97;4313978;33;34660;-76
2022/09/08 05:54:13;;;;;;;22.52;18.98;;;;;;;20.58;88.09;99537.88;4309638;33;36011;-77
2022/09/08 05:57:00;;;;;;;24.48;18.98;;;;;;;20.51;88.79;99533.00;4296021;33;33579;-77
2022/09/08 05:59:46;;;;;;;23.98;17.98;;;;;;;21.06;84.93;99538.78;4310591;33;33899;-77
2022/09/08 06:02:33;;;;;;;22.33;16.73;;;;;;;21.23;82.73;99539.28;4308087;33;35596;-77
2022/09/08 06:05:20;;;;;;;20.60;15.50;;;;;;;21.20;81.72;99538.06;4310596;33;35047;-77
2022/09/08 06:08:06;;;;;;;20.62;15.95;;;;;;;21.35;79.67;99541.78;4298890;33;34761;-77
2022/09/08 06:10:53;;;;;;;20.98;15.82;;;;;;;21.20;80.28;99535.28;4296094;33;34612;-77
2022/09/08 06:13:39;;;;;;;23.00;17.02;;;;;;;21.47;78.91;99533.16;4303021;33;34668;-77
2022/09/08 06:16:27;;;;;;;19.27;14.85;;;;;;;20.71;82.97;99530.84;4308991;33;34697;-76
2022/09/08 06:19:13;;;;;;;21.35;14.55;;;;;;;21.39;81.01;99525.91;4296644;33;34600;-77
2022/09/08 06:22:00;;;;;;;17.58;13.35;;;;;;;21.52;78.67;99532.78;4307966;33;35200;-77
2022/09/08 06:24:47;;;;;;;23.20;14.57;;;;;;;21.15;81.08;99530.09;4292694;33;34606;-77
2022/09/08 06:28:06;;;;;;;19.02;13.98;;;;;;;21.29;79.36;99532.19;4310514;33;34734;-77
2022/09/08 06:30:54;;;;;;;19.77;14.50;;;;;;;21.65;79.60;99521.31;4291427;33;35433;-81
2022/09/08 06:33:43;;;;;;;16.80;13.30;;;;;;;21.85;74.55;99514.25;4298398;33;34855;-80
2022/09/08 06:36:42;;;;;;;20.95;14.02;;;;;;;21.27;79.59;99509.47;4301699;33;34666;-81
2022/09/08 06:39:34;;;;;;;20.73;13.43;;;;;;;21.70;75.97;99507.03;4301856;33;35126;-81
2022/09/08 06:42:42;;;;;;;21.08;14.27;;;;;;;21.97;75.24;99505.59;4294989;33;35465;-80
2022/09/08 06:45:32;;;;;;;20.95;14.73;;;;;;;21.89;76.26;99501.16;4287414;33;33945;-80
2022/09/08 06:48:32;;;;;;;17.65;14.20;;;;;;;22.06;74.09;99501.59;4290986;33;34574;-78
2022/09/08 06:51:27;;;;;;;20.73;13.93;;;;;;;21.74;77.45;99499.47;4286594;33;34643;-77
2022/09/08 06:54:39;;;;;;;18.15;14.25;;;;;;;21.93;76.39;99498.37;4287497;33;35188;-78
2022/09/08 06:57:44;;;;;;;17.85;13.77;;;;;;;21.65;77.32;99499.81;4302246;33;35068;-77
2022/09/08 07:00:56;;;;;;;21.12;13.10;;;;;;;21.83;75.28;99494.34;4302151;33;34589;-77
2022/09/08 07:04:01;;;;;;;15.40;11.65;;;;;;;22.11;73.87;99490.87;4297387;33;35939;-77
2022/09/08 07:06:56;;;;;;;17.27;12.35;;;;;;;22.36;72.71;99479.81;4295511;33;34820;-77
2022/09/08 07:09:50;;;;;;;19.95;13.52;;;;;;;22.74;70.11;99482.28;4286833;33;34199;-77
2022/09/08 07:12:49;;;;;;;16.85;13.23;;;;;;;22.65;72.05;99482.69;4291480;33;35498;-78
2022/09/08 07:15:41;;;;;;;18.98;12.30;;;;;;;22.28;74.25;99486.59;4282614;33;35893;-78
2022/09/08 07:18:36;;;;;;;17.15;12.27;;;;;;;22.55;72.38;99484.28;4298126;33;34559;-78
2022/09/08 07:21:33;;;;;;;20.25;13.82;;;;;;;22.70;70.67;99476.72;4308331;33;33872;-78
2022/09/08 07:24:22;;;;;;;19.05;12.68;;;;;;;23.09;69.86;99478.78;4283302;33;34172;-78
2022/09/08 07:27:12;;;;;;;16.15;11.93;;;;;;;23.11;69.39;99481.97;4282539;33;34592;-79
2022/09/08 07:30:00;;;;;;;19.58;12.77;;;;;;;23.21;67.27;99481.16;4286792;33;34130;-79
2022/09/08 07:32:51;;;;;;;17.20;11.82;;;;;;;22.96;69.20;99477.56;4287141;33;35110;-78
2022/09/08 07:36:15;;;;;;;15.77;11.67;;;;;;;22.84;70.68;99487.91;4297418;33;34376;-79
2022/09/08 07:39:05;;;;;;;17.70;11.32;;;;;;;22.99;69.50;99485.16;4298766;33;34943;-79
2022/09/08 07:41:53;;;;;;;16.75;12.00;;;;;;;23.42;68.13;99490.72;4291324;33;34442;-79
2022/09/08 07:44:40;;;;;;;16.35;11.85;;;;;;;23.90;65.47;99493.03;4281160;33;33772;-78
2022/09/08 07:47:51;;;;;;;15.98;11.02;;;;;;;23.87;65.97;99496.63;4300512;33;34341;-78
2022/09/08 07:50:54;;;;;;;17.73;12.90;;;;;;;23.69;67.86;99494.66;4286086;33;34717;-78
2022/09/08 07:54:19;;;;;;;18.77;12.15;;;;;;;23.70;66.30;99501.06;4285004;33;34657;-79
2022/09/08 07:57:21;;;;;;;18.10;11.95;;;;;;;23.97;66.16;99493.03;4240332;33;34164;-79
2022/09/08 08:00:42;;;;;;;16.87;11.70;;;;;;;24.04;63.96;99506.97;4296316;33;34702;-79
2022/09/08 08:03:47;;;;;;;16.80;11.80;;;;;;;24.13;64.50;99517.72;4294381;33;33706;-79
2022/09/08 08:06:51;;;;;;;19.95;12.23;;;;;;;24.57;62.79;99521.97;4289088;33;34472;-78
2022/09/08 08:09:40;;;;;;;16.00;12.30;;;;;;;24.35;62.79;99512.84;4291843;33;34052;-80
2022/09/08 08:12:49;;;;;;;18.30;12.65;;;;;;;24.57;62.69;99508.75;4302237;33;34286;-79
2022/09/08 08:15:50;;;;;;;21.23;13.05;;;;;;;24.95;60.33;99511.69;4299082;33;35062;-79
2022/09/08 08:18:59;;;;;;;18.33;12.98;;;;;;;24.64;61.90;99524.72;4297203;33;34322;-77
2022/09/08 08:21:59;;;;;;;15.75;12.55;;;;;;;24.56;61.58;99518.38;4288513;33;34249;-80
2022/09/08 08:24:54;;;;;;;20.83;12.60;;;;;;;25.05;60.81;99516.44;4286717;33;34564;-80
2022/09/08 08:28:06;;;;;;;18.58;12.32;;;;;;;25.20;61.87;99507.94;4288196;33;35681;-79
2022/09/08 08:31:26;;;;;;;18.80;12.32;;;;;;;24.95;61.18;99520.09;4306471;33;34589;-79
2022/09/08 08:34:25;;;;;;;15.93;12.20;;;;;;;25.09;61.99;99522.81;4293802;33;34281;-79
2022/09/08 08:37:21;;;;;;;17.27;11.40;;;;;;;25.57;62.03;99530.44;4282207;33;34581;-78
2022/09/08 08:40:49;;;;;;;16.35;11.93;;;;;;;25.05;62.22;99516.44;4292049;33;35977;-79
2022/09/08 08:43:55;;;;;;;16.87;12.90;;;;;;;25.65;61.44;99528.37;4302269;33;35433;-79
2022/09/08 08:47:03;;;;;;;14.73;12.23;;;;;;;25.88;58.84;99527.75;4298092;33;35230;-80
2022/09/08 08:50:14;;;;;;;15.00;11.10;;;;;;;26.03;58.36;99523.56;4301312;33;34689;-79
2022/09/08 08:53:03;;;;;;;13.60;11.00;;;;;;;26.47;57.91;99516.19;4293856;33;34906;-79
2022/09/08 08:56:11;;;;;;;15.82;11.48;;;;;;;26.52;57.84;99511.34;4301817;33;34124;-79
2022/09/08 08:59:36;;;;;;;13.00;11.60;;;;;;;26.74;57.73;99515.44;4276756;33;33864;-79
2022/09/08 09:02:45;;;;;;;21.00;12.45;;;;;;;26.94;55.52;99506.31;4290388;33;34305;-80
2022/09/08 09:05:54;;;;;;;17.23;11.93;;;;;;;26.99;55.17;99503.03;4294416;33;34622;-80
2022/09/08 09:09:00;;;;;;;15.13;12.10;;;;;;;27.41;54.79;99498.72;4297672;33;34557;-80
2022/09/08 09:12:08;;;;;;;18.08;11.43;;;;;;;27.46;53.94;99498.22;4275767;33;35112;-80
2022/09/08 09:15:00;;;;;;;13.45;11.20;;;;;;;27.28;55.04;99480.88;4293713;33;34513;-80
2022/09/08 09:18:26;;;;;;;16.70;11.82;;;;;;;27.55;53.67;99477.97;4293046;33;35845;-79
2022/09/08 09:21:43;;;;;;;16.20;11.75;;;;;;;27.44;53.65;99468.94;4295226;33;34490;-79
2022/09/08 09:24:44;;;;;;;16.65;11.63;;;;;;;27.96;51.04;99474.00;4303544;33;34131;-79
2022/09/08 09:28:04;;;;;;;13.43;10.20;;;;;;;27.91;51.17;99474.50;4288613;33;35529;-80
2022/09/08 09:31:30;;;;;;;13.73;10.02;;;;;;;28.46;50.65;99472.94;4295201;33;34550;-79
2022/09/08 09:34:35;;;;;;;11.82;9.70;;;;;;;27.85;53.34;99464.97;4291318;33;34382;-78
2022/09/08 09:37:42;;;;;;;12.68;9.77;;;;;;;28.21;52.30;99457.38;4292081;33;34209;-79
2022/09/08 09:40:40;;;;;;;12.43;9.18;;;;;;;28.52;50.31;99457.12;4279079;33;34640;-78
2022/09/08 09:43:45;;;;;;;12.45;8.93;;;;;;;28.75;49.56;99444.13;4283226;33;35826;-79
2022/09/08 09:46:47;;;;;;;10.57;7.93;;;;;;;28.79;49.57;99447.63;4290952;33;35555;-79
2022/09/08 09:50:04;;;;;;;12.75;7.62;;;;;;;29.04;48.46;99439.38;4283469;33;34598;-80
2022/09/08 09:53:18;;;;;;;10.52;8.20;;;;;;;29.77;47.15;99439.03;4303031;33;34421;-78
2022/09/08 09:56:49;;;;;;;10.57;7.87;;;;;;;29.30;46.83;99439.50;4282626;33;35501;-79
2022/09/08 10:00:12;;;;;;;10.63;8.23;;;;;;;29.85;45.04;99445.28;4283616;33;34249;-78
2022/09/08 10:03:50;;;;;;;12.73;8.55;;;;;;;29.65;47.91;99442.63;4270235;33;35374;-79
2022/09/08 10:07:22;;;;;;;15.80;9.20;;;;;;;30.09;46.73;99446.59;4273165;33;35506;-78
2022/09/08 10:10:42;;;;;;;11.82;8.57;;;;;;;30.63;45.45;99437.28;4282452;33;34583;-78
2022/09/08 10:13:56;;;;;;;15.77;8.23;;;;;;;30.91;44.25;99440.47;4297641;33;34856;-78
2022/09/08 10:17:23;;;;;;;11.50;8.43;;;;;;;30.83;45.07;99445.56;4283450;33;35309;-79
2022/09/08 10:20:44;;;;;;;10.85;7.37;;;;;;;31.47;42.31;99438.97;4299298;33;35268;-78
2022/09/08 10:23:53;;;;;;;9.93;7.45;;;;;;;31.28;43.31;99420.97;4238042;33;35488;-79
2022/09/08 10:26:51;;;;;;;13.88;7.05;;;;;;;30.99;44.40;99424.00;4289302;33;34219;-79
2022/09/08 10:29:56;;;;;;;11.30;7.60;;;;;;;31.11;44.00;99409.84;4294463;33;33241;-79
2022/09/08 10:33:11;;;;;;;11.95;8.00;;;;;;;31.04;45.40;99403.62;4297213;33;34519;-78
2022/09/08 10:36:07;;;;;;;13.95;7.50;;;;;;;31.02;44.77;99404.09;4283548;33;34577;-79
2022/09/08 10:38:59;;;;;;;12.30;8.15;;;;;;;31.53;43.98;99400.31;4299191;33;34996;-78
2022/09/08 10:42:15;;;;;;;10.60;6.95;;;;;;;31.40;45.12;99408.88;4275638;33;33656;-78
2022/09/08 10:45:29;;;;;;;13.65;7.72;;;;;;;31.74;43.12;99422.19;4275278;33;34550;-79
2022/09/08 10:48:38;;;;;;;12.25;6.32;;;;;;;31.23;43.74;99427.25;4293678;33;35935;-78
2022/09/08 10:51:30;;;;;;;12.52;5.95;;;;;;;31.67;42.82;99411.09;4285388;33;34202;-79
2022/09/08 10:54:38;;;;;;;9.45;5.90;;;;;;;31.73;42.50;99403.59;4291597;33;34031;-79
2022/09/08 10:57:43;;;;;;;10.95;6.05;;;;;;;32.25;42.18;99399.22;4293242;33;33985;-79
2022/09/08 11:00:40;;;;;;;10.60;5.95;;;;;;;32.77;40.45;99404.47;4286255;33;34889;-78
2022/09/08 11:04:05;;;;;;;8.85;5.97;;;;;;;32.57;40.50;99408.50;4283379;33;34756;-80
2022/09/08 11:07:03;;;;;;;10.00;5.55;;;;;;;32.80;39.94;99397.84;4289805;33;35163;-79
2022/09/08 11:10:12;;;;;;;10.23;5.03;;;;;;;32.60;41.27;99396.22;4290682;33;34799;-78
2022/09/08 11:13:24;;;;;;;11.35;4.82;;;;;;;33.42;37.48;99397.63;4293220;33;35004;-79
2022/09/08 11:16:35;;;;;;;11.95;4.55;;;;;;;32.59;38.78;99403.16;4284885;33;35739;-79
2022/09/08 11:19:24;;;;;;;11.38;4.32;;;;;;;32.48;37.69;99397.91;4296783;33;34393;-80
2022/09/08 11:22:34;;;;;;;6.40;3.65;;;;;;;32.97;37.31;99407.66;4282406;33;35402;-80
2022/09/08 11:25:38;;;;;;;9.52;4.40;;;;;;;33.50;36.01;99403.75;4295978;33;34655;-80
2022/09/08 11:29:02;;;;;;;7.05;4.05;;;;;;;32.86;36.90;99401.66;4290141;33;34181;-81
2022/09/08 11:31:57;;;;;;;8.82;3.95;;;;;;;33.65;34.71;99398.28;4297425;33;33957;-81
2022/09/08 11:35:23;;;;;;;8.45;3.60;;;;;;;32.81;37.26;99394.53;4276566;33;34830;-82
2022/09/08 11:38:49;;;;;;;7.45;4.05;;;;;;;33.15;35.12;99398.41;4300184;33;35922;-80
2022/09/08 11:41:49;;;;;;;10.68;3.90;;;;;;;33.17;35.84;99401.56;4286194;33;35434;-81
2022/09/08 11:44:42;;;;;;;8.63;3.75;;;;;;;32.84;37.87;99384.28;4305640;33;34285;-81
2022/09/08 11:47:47;;;;;;;11.25;3.97;;;;;;;33.29;36.88;99383.56;4296355;33;34249;-80
2022/09/08 11:50:43;;;;;;;8.50;3.60;;;;;;;33.58;36.33;99393.69;4299991;33;33936;-81
2022/09/08 11:54:12;;;;;;;8.88;3.85;;;;;;;33.07;36.82;99383.75;4295217;33;34207;-81
2022/09/08 11:58:16;;;;;;;9.00;3.30;;;;;;;33.09;36.10;99381.19;4299706;33;34252;-81
2022/09/08 12:01:24;;;;;;;6.45;3.53;;;;;;;33.46;36.08;99383.25;4238102;33;35425;-80
2022/09/08 12:04:36;;;;;;;7.65;3.30;;;;;;;32.46;36.43;99388.28;4229023;33;34870;-80
2022/09/08 12:08:07;;;;;;;9.68;3.17;;;;;;;32.93;36.48;99390.00;4298074;33;34728;-80
2022/09/08 12:10:59;;;;;;;;;;;;;;;32.72;36.69;99391.69;4295312;33;33924;-80
2022/09/08 12:13:56;;;;;;;12.85;3.45;;;;;;;32.51;36.62;99387.69;4284527;33;36012;-80
2022/09/08 12:17:09;;;;;;;6.28;3.47;;;;;;;32.04;38.29;99380.22;4287438;33;34694;-80
2022/09/08 12:20:11;;;;;;;10.65;3.75;;;;;;;31.49;39.49;99368.53;4297201;33;34921;-81
2022/09/08 12:23:12;;;;;;;7.82;3.62;;;;;;;31.79;39.11;99362.13;4284697;33;34314;-81
2022/09/08 12:26:07;;;;;;;;;;;;;;;32.06;37.89;99369.19;4303225;33;34594;-81
2022/09/08 12:29:46;;;;;;;11.93;3.28;;;;;;;31.49;39.25;99362.84;4279742;33;35367;-80
2022/09/08 12:33:00;;;;;;;11.88;3.25;;;;;;;31.35;39.80;99362.13;4279089;33;34146;-80
2022/09/08 12:35:55;;;;;;;10.27;3.78;;;;;;;31.83;38.43;99361.19;4296708;33;33759;-80
2022/09/08 12:38:49;;;;;;;8.45;3.70;;;;;;;32.02;38.21;99357.22;4287968;33;35479;-80
2022/09/08 12:42:00;;;;;;;8.90;3.45;;;;;;;31.95;38.30;99351.84;4289660;33;34609;-80
2022/09/08 12:45:11;;;;;;;7.80;3.20;;;;;;;32.12;38.44;99347.50;4292941;33;34689;-80
2022/09/08 12:48:04;;;;;;;7.50;3.30;;;;;;;32.12;36.86;99333.34;4295194;33;33822;-80
2022/09/08 12:50:54;;;;;;;8.88;3.12;;;;;;;31.44;38.89;99326.62;4284960;33;34665;-81
2022/09/08 12:54:03;;;;;;;11.55;3.33;;;;;;;32.54;36.80;99335.72;4283187;33;35996;-81
2022/09/08 12:56:52;;;;;;;7.57;3.28;;;;;;;32.15;37.25;99334.44;4292736;33;34331;-81
2022/09/08 12:59:59;;;;;;;6.05;3.10;;;;;;;32.78;35.70;99320.94;4313654;33;34163;-81
2022/09/08 13:02:57;;;;;;;7.32;3.45;;;;;;;32.57;37.13;99329.09;4299967;33;34401;-79
2022/09/08 13:06:18;;;;;;;5.32;2.92;;;;;;;32.18;37.19;99320.13;4312029;33;35022;-80
2022/09/08 13:09:23;;;;;;;8.75;3.95;;;;;;;32.61;37.49;99326.88;4300569;33;35432;-80
2022/09/08 13:12:49;;;;;;;8.38;3.03;;;;;;;31.71;39.83;99320.38;4283678;33;35136;-80
2022/09/08 13:15:51;;;;;;;8.82;3.25;;;;;;;32.38;36.64;99311.22;4288467;33;34224;-80
2022/09/08 13:19:15;;;;;;;7.25;2.92;;;;;;;32.29;37.51;99310.41;4290586;33;34982;-80
2022/09/08 13:22:41;;;;;;;5.93;2.53;;;;;;;32.75;36.63;99304.84;4304722;33;34791;-81
2022/09/08 13:25:52;;;;;;;10.00;2.83;;;;;;;32.57;35.89;99299.94;4290842;33;34272;-80
2022/09/08 13:29:00;;;;;;;6.67;2.57;;;;;;;31.31;37.49;99292.72;4298289;33;35535;-80
2022/09/08 13:32:15;;;;;;;8.90;3.40;;;;;;;31.72;39.37;99300.06;4308037;33;34677;-81
2022/09/08 13:35:19;;;;;;;9.00;3.30;;;;;;;31.22;38.63;99284.94;4306043;33;34755;-81
2022/09/08 13:38:11;;;;;;;9.82;3.10;;;;;;;31.51;38.54;99287.53;4309896;33;34124;-81
2022/09/08 13:41:08;;;;;;;8.88;2.87;;;;;;;31.38;38.37;99281.16;4285221;33;34575;-81
2022/09/08 13:44:03;;;;;;;8.75;3.12;;;;;;;31.10;39.78;99285.81;4290488;33;35008;-81
2022/09/08 13:47:24;;;;;;;6.50;3.30;;;;;;;31.29;38.15;99286.72;4306796;33;34832;-80
2022/09/08 13:50:26;;;;;;;10.80;3.65;;;;;;;30.90;39.52;99280.47;4296235;33;35006;-81